Airport Name : St Paul Island

Other Name : St Paul Island

ICAO : PASN

IATA : SNP

FAA : PSNP

Latitude : 57.167333

Longitude : -170.220444

Country : United States

Local Date and Time : 15 Jan 2021 13:28

 

TAF (Terminal Aerodrome Forecast)

PASN 152320Z 1600/1624 35015G25KT 1 1/2SM -SN BLSN SCT015 OVC025 FM160900 34020G30KT 2SM -SN SCT007 OVC015 FM162200 34015G25KT 6SM -SN SCT015 OVC025

 

METAR (METeorological Aerodrome Report)

To Charter a Jet Click here.